Time;durP1;ratioP1;P1;durP2;ratioP2;P2;SDS_P1;SDS_P2;PMS_P1;PMS_P2;Temp;Humidity;BMP_temperature;BMP_pressure;BME280_temperature;BME280_humidity;BME280_pressure;Samples;Min_cycle;Max_cycle;Signal;HPM_P1;HPM_P2
2022/08/29 10:46:59;;;;;;;6.50;2.57;;;24.50;90.90;;;-144.05;32.74;125687.94;4946598;29;20123;-91
2022/08/29 10:50:14;;;;;;;6.57;2.72;;;24.40;90.50;;;-144.05;32.78;125687.94;4970159;28;20096;-89
2022/08/29 10:53:15;;;;;;;3.97;2.10;;;24.30;90.90;;;-144.05;32.83;125687.94;4944277;29;20042;-90
2022/08/29 10:55:59;;;;;;;7.95;2.50;;;24.50;91.20;;;-144.05;33.59;125687.94;4962663;29;20027;-91
2022/08/29 10:58:39;;;;;;;12.50;2.80;;;24.30;91.40;;;-144.05;33.47;125687.94;4943394;29;20487;-91
2022/08/29 11:01:40;;;;;;;6.85;2.60;;;24.20;91.70;;;-144.05;33.69;125687.94;4951155;29;20059;-90
2022/08/29 11:04:18;;;;;;;5.65;2.60;;;24.10;91.90;;;-144.05;33.15;125687.94;4951007;28;20035;-90
2022/08/29 11:07:10;;;;;;;4.28;2.00;;;24.20;90.90;;;-144.05;32.67;125687.94;4949744;28;20374;-91
2022/08/29 11:09:56;;;;;;;4.90;2.33;;;24.60;90.60;;;-144.05;32.50;125687.94;4948332;29;20028;-88
2022/08/29 11:13:16;;;;;;;5.32;2.40;;;25.00;90.80;;;-144.05;32.89;125687.94;4956636;28;20040;-89
2022/08/29 11:15:58;;;;;;;3.97;2.10;;;25.00;90.30;;;-144.05;31.93;125687.94;4953351;28;20047;-90
2022/08/29 11:18:47;;;;;;;5.25;2.45;;;24.90;86.70;;;-144.05;32.60;125687.94;4948945;29;20453;-88
2022/08/29 11:21:55;;;;;;;4.50;2.40;;;25.00;88.40;;;-144.05;32.64;125687.94;4956868;28;20036;-87
2022/08/29 11:24:32;;;;;;;7.47;2.30;;;25.10;88.90;;;-144.05;32.85;125687.94;4957586;28;20047;-88
2022/08/29 11:27:41;;;;;;;5.97;2.65;;;24.80;87.40;;;-144.05;34.49;125687.94;4956646;28;20038;-89
2022/08/29 11:30:25;;;;;;;5.47;2.35;;;24.00;90.10;;;-144.05;35.00;125687.94;4950432;29;20042;-88
2022/08/29 11:33:39;;;;;;;4.10;2.42;;;23.50;90.70;;;-144.05;35.26;125687.94;4972307;28;20047;-87
2022/08/29 11:36:56;;;;;;;9.18;2.20;;;23.10;91.50;;;-144.05;35.21;125687.94;4944474;29;20055;-89
2022/08/29 11:39:43;;;;;;;5.43;2.00;;;22.70;91.90;;;-144.05;35.26;125687.94;4945550;29;20032;-87
2022/08/29 11:42:15;;;;;;;4.85;2.22;;;22.90;92.80;;;-144.05;34.41;125687.94;4951866;29;20031;-90
2022/08/29 11:44:56;;;;;;;5.40;2.35;;;23.80;92.20;;;-144.05;33.42;125687.94;4954033;28;20047;-89
2022/08/29 11:47:46;;;;;;;5.18;2.22;;;24.40;90.40;;;-144.05;33.32;125687.94;4951102;29;20131;-89
2022/08/29 11:50:38;;;;;;;8.00;2.53;;;25.00;90.40;;;-144.05;32.67;125687.94;4953972;28;20051;-89
2022/08/29 11:53:21;;;;;;;5.68;2.22;;;25.30;88.90;;;-144.05;32.64;125687.94;4957560;28;20036;-90
2022/08/29 11:56:14;;;;;;;5.07;2.35;;;25.40;88.50;;;-144.05;32.52;125687.94;4944917;29;20035;-89
2022/08/29 12:03:55;;;;;;;5.55;2.33;;;25.00;87.20;;;-144.05;32.26;125687.94;4969114;29;20425;-91
2022/08/29 12:06:59;;;;;;;5.90;1.88;;;25.40;87.10;;;-144.05;32.54;125687.94;4974256;28;20039;-90
2022/08/29 12:09:44;;;;;;;3.97;2.10;;;25.40;87.00;;;-144.05;32.46;125687.94;4968907;28;20489;-93
2022/08/29 12:12:19;;;;;;;4.22;2.30;;;25.30;86.00;;;-144.05;32.54;125687.94;4950705;28;20123;-90
2022/08/29 12:14:51;;;;;;;5.18;2.17;;;25.40;86.00;;;-144.05;31.86;125687.94;4947911;28;20043;-90
2022/08/29 12:17:28;;;;;;;5.03;2.40;;;25.70;84.50;;;-144.05;32.41;125687.94;4954753;28;20101;-90
2022/08/29 12:20:04;;;;;;;5.88;2.42;;;25.70;85.10;;;-144.05;32.36;125687.94;4958426;28;20441;-89
2022/08/29 12:22:48;;;;;;;4.20;1.63;;;26.00;88.00;;;-144.05;31.63;125687.94;4957511;28;20068;-87
2022/08/29 12:25:26;;;;;;;6.32;2.55;;;26.20;85.00;;;-144.05;30.68;125687.94;4956582;28;20056;-88
2022/08/29 12:28:31;;;;;;;7.32;2.55;;;25.90;79.80;;;-144.05;31.40;125687.94;4954219;28;20032;-89
2022/08/29 12:30:57;;;;;;;6.85;2.30;;;25.60;81.00;;;-144.05;32.04;125687.94;4951523;29;20042;-88
2022/08/29 12:34:05;;;;;;;4.82;2.30;;;25.80;83.30;;;-144.05;31.54;125687.94;4957578;28;20023;-88
2022/08/29 13:22:05;;;;;;;5.20;2.55;;;26.10;76.10;;;-144.05;30.54;125687.94;4974741;28;19923;-90
2022/08/29 13:26:14;;;;;;;8.32;2.58;;;26.10;76.50;;;-144.05;30.03;125687.94;4951005;29;20039;-88
2022/08/29 13:30:11;;;;;;;3.72;2.42;;;26.00;75.50;;;-144.05;30.50;125687.94;4969267;28;20039;-89
2022/08/29 13:37:47;;;;;;;3.17;2.22;;;25.90;78.80;;;-144.05;31.32;125687.94;4945708;29;20126;-91
2022/08/29 13:42:02;;;;;;;4.90;2.28;;;25.70;78.40;;;-144.05;31.84;125687.94;4950101;29;20046;-89
2022/08/29 13:44:36;;;;;;;3.92;1.55;;;25.60;80.10;;;-144.05;31.59;125687.94;4968848;28;20036;-89
2022/08/29 13:47:16;;;;;;;3.72;1.90;;;25.60;79.00;;;-144.05;32.28;125687.94;4953749;28;20063;-90
2022/08/29 13:49:43;;;;;;;4.63;2.45;;;25.30;79.70;;;-144.05;32.20;125687.94;4957550;28;20051;-85
2022/08/29 13:52:11;;;;;;;3.80;2.13;;;25.30;79.60;;;-144.05;31.91;125687.94;4967338;29;20043;-89
2022/08/29 13:54:41;;;;;;;3.42;1.65;;;25.20;79.50;;;-144.05;32.11;125687.94;4946616;28;20051;-89
2022/08/29 13:57:18;;;;;;;6.00;1.60;;;25.30;79.40;;;-144.05;32.02;125687.94;4946998;29;20051;-90
2022/08/29 13:59:47;;;;;;;4.25;1.98;;;25.20;79.60;;;-144.05;32.36;125687.94;4943836;29;20088;-89
2022/08/29 14:02:14;;;;;;;6.88;2.30;;;25.10;79.80;;;-144.05;32.07;125687.94;4966841;28;20030;-91
2022/08/29 14:04:47;;;;;;;4.75;2.05;;;25.00;79.40;;;-144.05;32.53;125687.94;4953963;28;20046;-87
2022/08/29 14:07:30;;;;;;;6.13;2.33;;;24.80;80.90;;;-144.05;33.33;125687.94;4950944;29;20030;-90
2022/08/29 14:09:58;;;;;;;4.50;2.00;;;24.70;83.10;;;-144.05;33.07;125687.94;4950549;28;20024;-90
2022/08/29 14:12:24;;;;;;;2.85;1.98;;;24.50;81.70;;;-144.05;33.06;125687.94;4971774;28;20031;-87
2022/08/29 14:14:50;;;;;;;3.30;1.73;;;24.40;81.90;;;-144.05;33.15;125687.94;4972586;28;20064;-89
2022/08/29 14:17:18;;;;;;;3.20;2.03;;;24.40;82.30;;;-144.05;33.30;125687.94;4955160;28;20044;-88
2022/08/29 14:19:49;;;;;;;4.40;2.08;;;24.40;82.30;;;-144.05;33.25;125687.94;4954998;28;20047;-88
2022/08/29 14:22:15;;;;;;;4.03;2.10;;;24.40;82.80;;;-144.05;32.83;125687.94;4952920;28;20040;-90
2022/08/29 14:24:50;;;;;;;6.15;1.95;;;24.40;81.10;;;-144.05;33.70;125687.94;4951229;28;20046;-88
2022/08/29 15:19:02;;;;;;;5.10;2.15;;;23.40;89.60;;;-144.05;33.92;125687.94;4961677;29;19946;-86
2022/08/29 15:21:29;;;;;;;3.45;1.98;;;23.40;84.10;;;-144.05;33.44;125687.94;4961672;28;20031;-88
2022/08/29 15:23:57;;;;;;;8.65;2.38;;;23.50;83.00;;;-144.05;34.13;125687.94;4960302;29;20036;-86
2022/08/29 15:26:31;;;;;;;4.95;2.00;;;23.60;85.10;;;-144.05;33.45;125687.94;4963383;29;20027;-88
2022/08/29 15:28:57;;;;;;;6.75;2.03;;;23.60;82.70;;;-144.05;33.69;125687.94;4946638;29;20088;-84
2022/08/29 15:31:23;;;;;;;3.78;2.03;;;23.60;83.30;;;-144.05;33.74;125687.94;4959189;28;20043;-86
2022/08/29 15:33:49;;;;;;;2.95;1.80;;;23.60;82.60;;;-144.05;34.08;125687.94;4957420;29;20031;-83
2022/08/29 15:36:15;;;;;;;2.70;1.65;;;23.50;84.10;;;-144.05;34.19;125687.94;4957875;28;20042;-87
2022/08/29 15:38:41;;;;;;;4.90;1.85;;;23.50;84.40;;;-144.05;33.61;125687.94;4956984;29;20034;-86
2022/08/29 15:41:07;;;;;;;4.18;1.98;;;23.40;82.40;;;-144.05;33.34;125687.94;4958710;28;20031;-87
2022/08/29 15:43:33;;;;;;;4.18;2.20;;;23.30;82.00;;;-144.05;33.88;125687.94;4956945;28;20039;-84
2022/08/29 15:45:59;;;;;;;5.43;1.98;;;23.30;83.00;;;-144.05;34.08;125687.94;4957385;29;20043;-87
2022/08/29 15:48:25;;;;;;;9.55;2.20;;;23.20;84.60;;;-144.05;33.45;125687.94;4957808;28;20039;-89
2022/08/29 15:50:51;;;;;;;3.17;1.60;;;23.20;82.30;;;-144.05;31.90;125687.94;4956977;28;20464;-88
2022/08/29 15:53:17;;;;;;;4.65;2.13;;;23.20;77.40;;;-144.05;32.03;125687.94;4957851;29;20027;-86
2022/08/29 15:55:42;;;;;;;7.68;2.40;;;23.20;77.80;;;-144.05;33.60;125687.94;4959988;28;20042;-89
2022/08/29 15:58:08;;;;;;;4.95;1.83;;;23.20;81.80;;;-144.05;34.12;125687.94;4960233;28;20035;-85
2022/08/29 16:00:34;;;;;;;4.60;2.20;;;23.10;83.60;;;-144.05;34.42;125687.94;4959779;29;20511;-85
2022/08/29 16:03:03;;;;;;;3.67;1.90;;;23.00;84.40;;;-144.05;34.95;125687.94;4959580;29;20135;-85
2022/08/29 16:05:32;;;;;;;4.53;2.53;;;23.00;85.00;;;-144.05;35.17;125687.94;4961427;29;20026;-88
2022/08/29 16:07:58;;;;;;;4.45;1.88;;;22.90;86.80;;;-144.05;34.81;125687.94;4960095;29;20027;-87
2022/08/29 16:10:24;;;;;;;3.38;1.90;;;22.90;85.80;;;-144.05;34.57;125687.94;4959936;28;20337;-87
2022/08/29 16:12:50;;;;;;;3.53;1.90;;;22.80;85.10;;;-144.05;34.81;125687.94;4959396;28;20019;-83
2022/08/29 16:15:16;;;;;;;4.70;1.98;;;22.80;85.70;;;-144.05;34.95;125687.94;4969839;28;20030;-85
2022/08/29 16:17:42;;;;;;;4.93;2.17;;;22.70;85.60;;;-144.05;34.00;125687.94;4970956;28;20431;-87
2022/08/29 16:20:10;;;;;;;4.78;1.77;;;22.80;83.50;;;-144.05;34.08;125687.94;4962972;28;20028;-91
2022/08/29 16:22:41;;;;;;;4.22;1.90;;;22.70;83.80;;;-144.05;33.96;125687.94;4978268;28;20030;-87
2022/08/29 16:25:11;;;;;;;5.32;1.80;;;22.60;83.00;;;-144.05;33.37;125687.94;4978426;28;20027;-87
2022/08/29 16:27:37;;;;;;;5.18;1.80;;;22.60;81.30;;;-144.05;34.19;125687.94;4977621;28;20083;-86
2022/08/29 16:30:06;;;;;;;4.07;1.95;;;22.60;83.80;;;-144.05;34.71;125687.94;4978370;28;20107;-91
2022/08/29 16:32:36;;;;;;;5.45;1.92;;;22.60;85.00;;;-144.05;35.31;125687.94;4978434;28;20039;-89
2022/08/29 16:35:06;;;;;;;3.40;1.90;;;22.50;86.20;;;-144.05;35.24;125687.94;4978302;28;20027;-89
2022/08/29 16:37:32;;;;;;;6.07;1.95;;;22.50;86.10;;;-144.05;35.07;125687.94;4978312;28;20026;-90
2022/08/29 16:40:00;;;;;;;4.90;1.90;;;22.40;85.70;;;-144.05;34.72;125687.94;4978318;28;20031;-89
2022/08/29 16:42:30;;;;;;;3.60;1.90;;;22.40;85.50;;;-144.05;34.74;125687.94;4978259;28;20094;-90
2022/08/29 16:44:56;;;;;;;4.63;1.90;;;22.40;84.80;;;-144.05;35.19;125687.94;4979068;28;20051;-89
2022/08/29 16:47:22;;;;;;;5.60;2.08;;;22.40;85.80;;;-144.05;34.91;125687.94;4978126;28;20061;-90
2022/08/29 16:49:49;;;;;;;5.93;1.73;;;22.40;85.90;;;-144.05;35.33;125687.94;4978178;28;20023;-90
2022/08/29 16:52:15;;;;;;;4.03;1.65;;;22.30;86.50;;;-144.05;35.14;125687.94;4978113;28;20035;-88
2022/08/29 16:54:41;;;;;;;3.90;1.88;;;22.30;85.80;;;-144.05;34.19;125687.94;4978118;28;20051;-90
2022/08/29 16:57:08;;;;;;;3.05;1.77;;;22.30;83.40;;;-144.05;34.01;125687.94;4977572;28;20027;-90
2022/08/29 16:59:34;;;;;;;3.45;2.15;;;22.30;82.20;;;-144.05;33.66;125687.94;4977876;28;20038;-90
2022/08/29 17:02:01;;;;;;;5.50;2.00;;;22.20;81.70;;;-144.05;33.96;125687.94;4978090;28;20058;-90
2022/08/29 17:04:28;;;;;;;3.72;2.22;;;22.10;82.10;;;-144.05;33.91;125687.94;4977983;28;20043;-90
2022/08/29 17:06:55;;;;;;;5.72;2.20;;;22.00;82.10;;;-144.05;34.05;125687.94;4978017;28;20027;-91
2022/08/29 17:16:53;;;;;;;5.32;1.92;;;21.90;83.00;;;-144.05;33.95;125687.94;4978486;28;20046;-91
2022/08/29 17:19:22;;;;;;;4.38;2.20;;;21.90;82.50;;;-144.05;33.96;125687.94;4977762;28;20015;-89
2022/08/29 17:21:50;;;;;;;3.47;1.75;;;21.90;82.80;;;-144.05;33.04;125687.94;4977675;28;20023;-90
2022/08/29 17:24:17;;;;;;;4.57;2.22;;;21.90;79.50;;;-144.05;32.99;125687.94;4977588;28;20031;-89
2022/08/29 17:26:47;;;;;;;4.10;1.83;;;21.90;80.90;;;-144.05;33.20;125687.94;4977637;28;20024;-90
2022/08/29 17:29:14;;;;;;;3.35;2.00;;;21.90;80.40;;;-144.05;33.80;125687.94;4977479;28;20027;-89
2022/08/29 17:31:44;;;;;;;6.20;2.22;;;21.80;82.40;;;-144.05;34.67;125687.94;4977531;28;20121;-89
2022/08/29 17:34:26;;;;;;;3.67;2.10;;;21.70;84.40;;;-144.05;34.87;125687.94;4978261;28;20019;-91
2022/08/29 17:36:52;;;;;;;3.42;2.20;;;21.70;84.80;;;-144.05;34.81;125687.94;4977739;28;20027;-89
2022/08/29 17:39:19;;;;;;;6.32;2.33;;;21.70;85.00;;;-144.05;35.24;125687.94;4977240;28;20030;-91
2022/08/29 17:41:50;;;;;;;5.82;2.22;;;21.60;85.60;;;-144.05;35.04;125687.94;4971451;28;20058;-89
2022/08/29 17:44:17;;;;;;;4.63;2.13;;;21.50;85.30;;;-144.05;35.18;125687.94;4975957;28;20027;-88
2022/08/29 17:46:43;;;;;;;6.25;2.60;;;21.50;86.00;;;-144.05;35.79;125687.94;4972818;28;20039;-88
2022/08/29 17:49:10;;;;;;;6.72;2.70;;;21.40;87.60;;;-144.05;36.46;125687.94;4960349;28;20023;-89
2022/08/29 17:51:38;;;;;;;3.60;2.05;;;21.40;89.10;;;-144.05;36.18;125687.94;4960552;28;20387;-87
2022/08/29 17:54:10;;;;;;;2.85;2.10;;;21.40;88.60;;;-144.05;36.37;125687.94;4960106;28;20059;-86
2022/08/29 17:56:58;;;;;;;5.85;2.28;;;21.30;89.30;;;-144.05;36.56;125687.94;4964233;29;20027;-85
2022/08/29 17:59:32;;;;;;;4.82;2.35;;;21.20;90.00;;;-144.05;36.65;125687.94;4962072;28;20027;-86
2022/08/29 18:02:00;;;;;;;4.32;2.25;;;21.20;90.10;;;-144.05;36.61;125687.94;4962723;28;20039;-85
2022/08/29 18:04:26;;;;;;;4.75;1.92;;;21.20;90.00;;;-144.05;36.64;125687.94;4965171;29;20027;-88
2022/08/29 18:06:55;;;;;;;5.65;2.75;;;21.20;90.00;;;-144.05;36.67;125687.94;4970408;28;20043;-87
2022/08/29 18:09:23;;;;;;;4.88;2.70;;;21.20;90.20;;;-144.05;36.85;125687.94;4963841;29;20085;-88
2022/08/29 18:11:53;;;;;;;8.38;2.80;;;21.20;90.60;;;-144.05;37.10;125687.94;4964127;28;20031;-88
2022/08/29 18:14:25;;;;;;;5.40;2.63;;;21.10;90.80;;;-144.05;37.39;125687.94;4961434;28;20042;-91
2022/08/29 18:16:53;;;;;;;3.70;2.63;;;21.10;91.00;;;-144.05;37.34;125687.94;4962283;29;20077;-87
2022/08/29 18:19:21;;;;;;;5.43;2.83;;;21.00;91.10;;;-144.05;37.44;125687.94;4958585;29;20099;-87
2022/08/29 18:21:51;;;;;;;7.30;2.85;;;21.00;91.20;;;-144.05;37.21;125687.94;4958011;29;20378;-88
2022/08/29 18:24:20;;;;;;;5.72;2.47;;;21.00;91.20;;;-144.05;37.36;125687.94;4957623;29;20032;-85
2022/08/29 18:26:49;;;;;;;6.20;2.90;;;21.00;91.30;;;-144.05;37.67;125687.94;4944206;29;20071;-87
2022/08/29 18:29:15;;;;;;;5.28;2.30;;;20.90;91.70;;;-144.05;37.76;125687.94;4957366;29;20032;-87
2022/08/29 18:31:42;;;;;;;3.45;2.13;;;20.90;91.90;;;-144.05;38.02;125687.94;4957553;29;20028;-89
2022/08/29 18:34:09;;;;;;;4.47;2.50;;;20.90;92.20;;;-144.05;38.12;125687.94;4957512;29;20106;-90
2022/08/29 18:36:41;;;;;;;6.28;2.58;;;20.90;92.30;;;-144.05;38.36;125687.94;4943104;29;20598;-86
2022/08/29 18:39:09;;;;;;;5.78;2.75;;;20.80;92.60;;;-144.05;38.33;125687.94;4957279;29;20054;-88
2022/08/29 18:41:35;;;;;;;5.03;2.55;;;20.70;92.80;;;-144.05;38.51;125687.94;4956935;29;20036;-89
2022/08/29 18:44:02;;;;;;;7.80;2.97;;;20.70;93.10;;;-144.05;38.60;125687.94;4956922;29;20464;-89
2022/08/29 18:46:29;;;;;;;6.05;2.70;;;20.60;93.10;;;-144.05;38.61;125687.94;4941558;29;20031;-88
2022/08/29 18:48:56;;;;;;;5.10;2.38;;;20.60;93.40;;;-144.05;38.95;125687.94;4956646;29;20558;-88
2022/08/29 18:51:22;;;;;;;3.60;2.13;;;20.60;93.80;;;-144.05;39.10;125687.94;4941064;29;20027;-86
2022/08/29 18:53:51;;;;;;;4.72;2.55;;;20.50;94.00;;;-144.05;39.23;125687.94;4941043;29;20400;-86
2022/08/29 18:56:19;;;;;;;5.90;2.78;;;20.50;94.40;;;-144.05;39.42;125687.94;4957080;29;20028;-87
2022/08/29 18:58:46;;;;;;;6.65;2.95;;;20.30;94.70;;;-144.05;39.43;125687.94;4942337;29;20063;-90
2022/08/29 19:01:22;;;;;;;6.60;2.65;;;20.30;94.80;;;-144.05;39.78;125687.94;4956900;29;20087;-89
2022/08/29 19:03:51;;;;;;;6.95;3.00;;;20.30;95.30;;;-144.05;39.88;125687.94;4940540;29;20035;-87
2022/08/29 19:06:18;;;;;;;7.93;3.03;;;20.20;95.50;;;-144.05;39.98;125687.94;4940797;29;20396;-89
2022/08/29 19:08:45;;;;;;;5.97;3.20;;;20.20;96.30;;;-144.05;40.30;125687.94;4957054;29;20123;-88
2022/08/29 19:11:12;;;;;;;6.75;3.05;;;20.00;96.20;;;-144.05;40.58;125687.94;4944279;29;20047;-85
2022/08/29 19:13:38;;;;;;;5.93;2.83;;;19.90;96.60;;;-144.05;40.65;125687.94;4966062;28;20086;-87
2022/08/29 19:16:08;;;;;;;10.27;3.42;;;19.90;96.90;;;-144.05;40.65;125687.94;4961501;28;20027;-90
2022/08/29 19:18:35;;;;;;;6.47;3.28;;;19.80;97.20;;;-144.05;40.70;125687.94;4962452;28;20039;-85
2022/08/29 19:21:01;;;;;;;7.00;3.33;;;19.90;97.70;;;-144.05;40.95;125687.94;4965514;28;20034;-89
